sensor_id;sensor_type;location;lat;lon;timestamp;P1;durP1;ratioP1;P2;durP2;ratioP2
11823;SDS011;5969;50.780;7.726;2023-01-10T09:32:32;9.55;;;3.05;;
11823;SDS011;5969;50.780;7.726;2023-01-10T09:34:59;7.75;;;2.55;;
11823;SDS011;5969;50.780;7.726;2023-01-10T09:37:26;11.80;;;2.90;;
11823;SDS011;5969;50.780;7.726;2023-01-10T09:39:52;10.45;;;2.83;;
11823;SDS011;5969;50.780;7.726;2023-01-10T09:42:25;9.75;;;3.22;;
11823;SDS011;5969;50.780;7.726;2023-01-10T09:45:05;10.20;;;2.70;;
11823;SDS011;5969;50.780;7.726;2023-01-10T09:47:45;10.38;;;2.97;;
11823;SDS011;5969;50.780;7.726;2023-01-10T09:50:20;6.75;;;2.17;;
11823;SDS011;5969;50.780;7.726;2023-01-10T09:52:54;10.35;;;2.92;;
11823;SDS011;5969;50.780;7.726;2023-01-10T09:55:29;12.63;;;2.72;;
11823;SDS011;5969;50.780;7.726;2023-01-10T09:57:59;12.95;;;2.70;;
11823;SDS011;5969;50.780;7.726;2023-01-10T10:00:32;9.88;;;2.83;;
11823;SDS011;5969;50.780;7.726;2023-01-10T10:03:04;12.07;;;2.70;;
11823;SDS011;5969;50.780;7.726;2023-01-10T10:05:40;8.38;;;2.60;;
11823;SDS011;5969;50.780;7.726;2023-01-10T10:08:07;8.68;;;2.65;;
11823;SDS011;5969;50.780;7.726;2023-01-10T10:10:45;15.23;;;3.10;;
11823;SDS011;5969;50.780;7.726;2023-01-10T10:13:17;16.33;;;3.08;;
11823;SDS011;5969;50.780;7.726;2023-01-10T10:15:50;9.05;;;2.50;;
11823;SDS011;5969;50.780;7.726;2023-01-10T10:18:27;10.52;;;3.55;;
11823;SDS011;5969;50.780;7.726;2023-01-10T10:21:00;11.10;;;2.58;;
11823;SDS011;5969;50.780;7.726;2023-01-10T10:23:34;11.98;;;3.30;;
11823;SDS011;5969;50.780;7.726;2023-01-10T10:26:11;13.50;;;3.10;;
11823;SDS011;5969;50.780;7.726;2023-01-10T10:28:50;12.85;;;2.50;;
11823;SDS011;5969;50.780;7.726;2023-01-10T10:31:47;15.52;;;3.15;;
11823;SDS011;5969;50.780;7.726;2023-01-10T10:34:34;11.45;;;3.25;;
11823;SDS011;5969;50.780;7.726;2023-01-10T10:37:07;12.50;;;3.20;;
11823;SDS011;5969;50.780;7.726;2023-01-10T10:39:40;13.80;;;3.03;;
11823;SDS011;5969;50.780;7.726;2023-01-10T10:42:13;13.27;;;3.50;;
11823;SDS011;5969;50.780;7.726;2023-01-10T10:44:44;9.10;;;2.83;;
11823;SDS011;5969;50.780;7.726;2023-01-10T10:47:16;11.82;;;2.83;;
11823;SDS011;5969;50.780;7.726;2023-01-10T10:49:48;13.15;;;2.83;;
11823;SDS011;5969;50.780;7.726;2023-01-10T10:52:20;11.40;;;3.15;;
11823;SDS011;5969;50.780;7.726;2023-01-10T10:54:52;7.65;;;2.50;;
11823;SDS011;5969;50.780;7.726;2023-01-10T10:57:21;12.77;;;2.90;;
11823;SDS011;5969;50.780;7.726;2023-01-10T10:59:52;12.00;;;3.08;;
11823;SDS011;5969;50.780;7.726;2023-01-10T11:02:22;7.35;;;2.83;;
11823;SDS011;5969;50.780;7.726;2023-01-10T11:04:56;8.95;;;2.65;;
11823;SDS011;5969;50.780;7.726;2023-01-10T11:07:28;10.70;;;2.50;;
11823;SDS011;5969;50.780;7.726;2023-01-10T11:10:02;12.40;;;2.97;;
11823;SDS011;5969;50.780;7.726;2023-01-10T11:12:40;17.23;;;4.15;;
11823;SDS011;5969;50.780;7.726;2023-01-10T11:15:25;9.55;;;2.50;;
11823;SDS011;5969;50.780;7.726;2023-01-10T11:18:03;13.80;;;2.80;;
11823;SDS011;5969;50.780;7.726;2023-01-10T11:20:35;14.65;;;3.28;;
11823;SDS011;5969;50.780;7.726;2023-01-10T11:23:03;13.07;;;3.13;;
11823;SDS011;5969;50.780;7.726;2023-01-10T11:25:30;10.80;;;3.20;;
11823;SDS011;5969;50.780;7.726;2023-01-10T11:28:15;11.43;;;2.92;;
11823;SDS011;5969;50.780;7.726;2023-01-10T11:30:44;7.65;;;2.97;;
11823;SDS011;5969;50.780;7.726;2023-01-10T11:33:16;7.47;;;2.78;;
11823;SDS011;5969;50.780;7.726;2023-01-10T11:35:57;8.60;;;3.15;;
11823;SDS011;5969;50.780;7.726;2023-01-10T11:38:27;11.60;;;3.15;;
11823;SDS011;5969;50.780;7.726;2023-01-10T11:40:57;10.48;;;2.55;;
11823;SDS011;5969;50.780;7.726;2023-01-10T11:43:27;11.23;;;3.17;;
11823;SDS011;5969;50.780;7.726;2023-01-10T11:45:59;17.65;;;3.47;;
11823;SDS011;5969;50.780;7.726;2023-01-10T11:48:38;7.95;;;2.70;;
11823;SDS011;5969;50.780;7.726;2023-01-10T11:51:19;9.30;;;2.70;;
11823;SDS011;5969;50.780;7.726;2023-01-10T11:53:51;9.05;;;2.88;;
11823;SDS011;5969;50.780;7.726;2023-01-10T11:56:27;9.52;;;2.83;;
11823;SDS011;5969;50.780;7.726;2023-01-10T11:59:05;10.35;;;2.72;;
11823;SDS011;5969;50.780;7.726;2023-01-10T12:01:40;13.07;;;2.78;;
11823;SDS011;5969;50.780;7.726;2023-01-10T12:04:18;10.18;;;2.65;;
11823;SDS011;5969;50.780;7.726;2023-01-10T12:06:50;11.75;;;2.38;;
11823;SDS011;5969;50.780;7.726;2023-01-10T12:09:36;10.70;;;2.83;;
11823;SDS011;5969;50.780;7.726;2023-01-10T12:12:13;8.98;;;3.10;;
11823;SDS011;5969;50.780;7.726;2023-01-10T12:14:43;10.45;;;2.80;;
11823;SDS011;5969;50.780;7.726;2023-01-10T12:17:12;11.95;;;2.72;;
11823;SDS011;5969;50.780;7.726;2023-01-10T12:19:52;11.13;;;2.45;;
11823;SDS011;5969;50.780;7.726;2023-01-10T12:22:34;12.77;;;3.28;;
11823;SDS011;5969;50.780;7.726;2023-01-10T12:25:05;11.65;;;2.78;;
11823;SDS011;5969;50.780;7.726;2023-01-10T12:27:52;10.98;;;2.67;;
11823;SDS011;5969;50.780;7.726;2023-01-10T12:30:23;10.60;;;2.85;;
11823;SDS011;5969;50.780;7.726;2023-01-10T12:32:58;8.90;;;2.60;;
11823;SDS011;5969;50.780;7.726;2023-01-10T12:35:35;9.18;;;2.40;;
11823;SDS011;5969;50.780;7.726;2023-01-10T12:38:14;10.98;;;2.67;;
11823;SDS011;5969;50.780;7.726;2023-01-10T12:41:04;5.90;;;2.25;;
11823;SDS011;5969;50.780;7.726;2023-01-10T12:43:37;9.43;;;3.15;;
11823;SDS011;5969;50.780;7.726;2023-01-10T12:49:22;10.70;;;2.90;;
11823;SDS011;5969;50.780;7.726;2023-01-10T12:51:53;10.18;;;2.53;;
11823;SDS011;5969;50.780;7.726;2023-01-10T12:54:29;11.32;;;2.70;;
11823;SDS011;5969;50.780;7.726;2023-01-10T12:56:57;15.07;;;3.95;;
11823;SDS011;5969;50.780;7.726;2023-01-10T12:59:30;14.30;;;2.92;;
11823;SDS011;5969;50.780;7.726;2023-01-10T13:02:01;10.27;;;2.65;;
11823;SDS011;5969;50.780;7.726;2023-01-10T13:04:33;12.15;;;2.92;;
11823;SDS011;5969;50.780;7.726;2023-01-10T13:07:03;8.63;;;2.60;;
11823;SDS011;5969;50.780;7.726;2023-01-10T13:09:32;11.45;;;2.78;;
11823;SDS011;5969;50.780;7.726;2023-01-10T13:12:01;9.13;;;2.50;;
11823;SDS011;5969;50.780;7.726;2023-01-10T13:14:35;12.52;;;2.78;;
11823;SDS011;5969;50.780;7.726;2023-01-10T13:17:08;9.48;;;2.65;;
11823;SDS011;5969;50.780;7.726;2023-01-10T13:19:51;11.35;;;2.55;;
11823;SDS011;5969;50.780;7.726;2023-01-10T13:23:21;9.85;;;2.28;;
11823;SDS011;5969;50.780;7.726;2023-01-10T13:25:58;11.45;;;2.70;;
11823;SDS011;5969;50.780;7.726;2023-01-10T13:28:44;9.98;;;2.55;;
11823;SDS011;5969;50.780;7.726;2023-01-10T13:31:21;11.35;;;2.80;;
11823;SDS011;5969;50.780;7.726;2023-01-10T13:33:52;8.55;;;2.35;;
11823;SDS011;5969;50.780;7.726;2023-01-10T13:36:26;7.35;;;2.33;;
11823;SDS011;5969;50.780;7.726;2023-01-10T13:38:58;10.05;;;2.80;;
11823;SDS011;5969;50.780;7.726;2023-01-10T13:48:01;14.25;;;3.00;;
11823;SDS011;5969;50.780;7.726;2023-01-10T13:53:42;12.88;;;2.70;;
11823;SDS011;5969;50.780;7.726;2023-01-10T13:56:34;10.75;;;3.28;;
11823;SDS011;5969;50.780;7.726;2023-01-10T13:59:09;13.75;;;2.95;;
11823;SDS011;5969;50.780;7.726;2023-01-10T14:02:15;15.93;;;3.78;;
11823;SDS011;5969;50.780;7.726;2023-01-10T14:04:58;13.60;;;3.50;;
11823;SDS011;5969;50.780;7.726;2023-01-10T14:07:31;11.15;;;3.70;;
11823;SDS011;5969;50.780;7.726;2023-01-10T14:10:08;13.20;;;3.63;;
11823;SDS011;5969;50.780;7.726;2023-01-10T14:12:48;17.77;;;3.80;;
11823;SDS011;5969;50.780;7.726;2023-01-10T14:15:22;11.23;;;3.28;;
11823;SDS011;5969;50.780;7.726;2023-01-10T14:17:57;10.23;;;2.92;;
11823;SDS011;5969;50.780;7.726;2023-01-10T14:20:31;10.00;;;3.10;;
11823;SDS011;5969;50.780;7.726;2023-01-10T14:23:02;12.93;;;4.18;;
11823;SDS011;5969;50.780;7.726;2023-01-10T14:29:04;9.48;;;2.55;;
11823;SDS011;5969;50.780;7.726;2023-01-10T14:31:45;13.52;;;3.15;;
11823;SDS011;5969;50.780;7.726;2023-01-10T14:34:15;12.85;;;3.20;;
11823;SDS011;5969;50.780;7.726;2023-01-10T14:36:48;14.18;;;3.50;;
11823;SDS011;5969;50.780;7.726;2023-01-10T14:39:23;16.42;;;3.67;;
11823;SDS011;5969;50.780;7.726;2023-01-10T14:44:53;14.13;;;3.30;;
11823;SDS011;5969;50.780;7.726;2023-01-10T14:47:26;7.25;;;2.90;;
11823;SDS011;5969;50.780;7.726;2023-01-10T14:49:57;15.05;;;2.65;;
11823;SDS011;5969;50.780;7.726;2023-01-10T14:52:26;13.90;;;3.30;;
11823;SDS011;5969;50.780;7.726;2023-01-10T14:55:05;13.20;;;3.25;;
11823;SDS011;5969;50.780;7.726;2023-01-10T14:57:39;9.75;;;2.50;;
11823;SDS011;5969;50.780;7.726;2023-01-10T15:00:13;9.43;;;2.58;;
11823;SDS011;5969;50.780;7.726;2023-01-10T16:07:40;13.43;;;3.13;;
11823;SDS011;5969;50.780;7.726;2023-01-10T16:10:13;11.77;;;2.95;;
11823;SDS011;5969;50.780;7.726;2023-01-10T16:12:44;13.95;;;3.25;;
11823;SDS011;5969;50.780;7.726;2023-01-10T16:15:29;10.70;;;2.63;;
11823;SDS011;5969;50.780;7.726;2023-01-10T16:18:01;14.65;;;3.40;;
11823;SDS011;5969;50.780;7.726;2023-01-10T16:20:34;17.67;;;3.03;;
11823;SDS011;5969;50.780;7.726;2023-01-10T16:23:03;10.13;;;2.63;;
11823;SDS011;5969;50.780;7.726;2023-01-10T16:25:37;12.02;;;2.65;;
11823;SDS011;5969;50.780;7.726;2023-01-10T16:28:08;9.05;;;2.97;;
11823;SDS011;5969;50.780;7.726;2023-01-10T16:30:37;15.40;;;3.22;;
11823;SDS011;5969;50.780;7.726;2023-01-10T16:35:44;12.50;;;2.80;;
11823;SDS011;5969;50.780;7.726;2023-01-10T16:38:12;14.75;;;2.95;;
11823;SDS011;5969;50.780;7.726;2023-01-10T16:40:42;11.30;;;3.03;;
11823;SDS011;5969;50.780;7.726;2023-01-10T16:43:11;12.43;;;3.50;;
11823;SDS011;5969;50.780;7.726;2023-01-10T16:45:44;10.70;;;2.78;;
11823;SDS011;5969;50.780;7.726;2023-01-10T16:48:11;12.95;;;3.08;;
11823;SDS011;5969;50.780;7.726;2023-01-10T16:50:38;9.10;;;2.53;;
11823;SDS011;5969;50.780;7.726;2023-01-10T16:53:08;13.00;;;2.95;;
11823;SDS011;5969;50.780;7.726;2023-01-10T16:55:37;14.07;;;3.35;;
11823;SDS011;5969;50.780;7.726;2023-01-10T16:58:06;7.82;;;2.67;;
11823;SDS011;5969;50.780;7.726;2023-01-10T17:00:33;13.23;;;3.38;;
11823;SDS011;5969;50.780;7.726;2023-01-10T17:03:01;10.07;;;3.53;;
11823;SDS011;5969;50.780;7.726;2023-01-10T17:05:32;11.20;;;2.78;;
11823;SDS011;5969;50.780;7.726;2023-01-10T17:08:00;9.25;;;2.38;;
11823;SDS011;5969;50.780;7.726;2023-01-10T17:10:31;6.90;;;3.30;;
11823;SDS011;5969;50.780;7.726;2023-01-10T17:13:00;11.70;;;2.58;;
11823;SDS011;5969;50.780;7.726;2023-01-10T17:15:29;12.18;;;2.97;;
11823;SDS011;5969;50.780;7.726;2023-01-10T17:17:56;11.63;;;2.67;;
11823;SDS011;5969;50.780;7.726;2023-01-10T17:20:23;9.65;;;3.00;;
11823;SDS011;5969;50.780;7.726;2023-01-10T17:22:50;14.45;;;3.53;;
11823;SDS011;5969;50.780;7.726;2023-01-10T17:25:17;12.23;;;3.08;;
11823;SDS011;5969;50.780;7.726;2023-01-10T17:27:46;8.68;;;3.20;;
11823;SDS011;5969;50.780;7.726;2023-01-10T17:30:13;13.82;;;5.22;;
11823;SDS011;5969;50.780;7.726;2023-01-10T17:32:40;14.85;;;3.70;;
11823;SDS011;5969;50.780;7.726;2023-01-10T17:35:07;11.23;;;2.80;;
11823;SDS011;5969;50.780;7.726;2023-01-10T17:37:38;12.18;;;3.08;;
11823;SDS011;5969;50.780;7.726;2023-01-10T17:40:06;9.70;;;3.65;;
11823;SDS011;5969;50.780;7.726;2023-01-10T17:42:34;15.93;;;3.10;;
11823;SDS011;5969;50.780;7.726;2023-01-10T17:45:03;10.40;;;3.67;;
11823;SDS011;5969;50.780;7.726;2023-01-10T17:47:32;9.68;;;3.33;;
11823;SDS011;5969;50.780;7.726;2023-01-10T17:50:01;13.43;;;3.22;;
11823;SDS011;5969;50.780;7.726;2023-01-10T17:52:29;12.45;;;3.30;;
11823;SDS011;5969;50.780;7.726;2023-01-10T17:54:56;14.00;;;3.65;;
11823;SDS011;5969;50.780;7.726;2023-01-10T17:57:23;12.05;;;3.60;;
11823;SDS011;5969;50.780;7.726;2023-01-10T17:59:50;9.48;;;3.15;;
11823;SDS011;5969;50.780;7.726;2023-01-10T18:02:18;10.57;;;3.42;;
11823;SDS011;5969;50.780;7.726;2023-01-10T18:04:45;13.65;;;4.13;;
11823;SDS011;5969;50.780;7.726;2023-01-10T18:07:12;13.02;;;3.35;;
11823;SDS011;5969;50.780;7.726;2023-01-10T18:09:39;8.75;;;3.63;;
11823;SDS011;5969;50.780;7.726;2023-01-10T18:12:06;13.48;;;4.60;;
11823;SDS011;5969;50.780;7.726;2023-01-10T18:14:34;12.68;;;4.35;;
11823;SDS011;5969;50.780;7.726;2023-01-10T18:17:07;11.50;;;3.45;;
11823;SDS011;5969;50.780;7.726;2023-01-10T18:19:37;11.27;;;4.10;;
11823;SDS011;5969;50.780;7.726;2023-01-10T18:22:04;15.07;;;4.68;;
11823;SDS011;5969;50.780;7.726;2023-01-10T18:24:45;9.80;;;3.22;;
11823;SDS011;5969;50.780;7.726;2023-01-10T18:27:13;14.90;;;3.95;;
11823;SDS011;5969;50.780;7.726;2023-01-10T18:29:40;10.80;;;3.58;;
11823;SDS011;5969;50.780;7.726;2023-01-10T18:32:07;10.32;;;3.42;;
11823;SDS011;5969;50.780;7.726;2023-01-10T18:34:34;12.18;;;3.85;;
11823;SDS011;5969;50.780;7.726;2023-01-10T18:37:02;11.93;;;3.33;;
11823;SDS011;5969;50.780;7.726;2023-01-10T18:39:35;10.35;;;3.80;;
11823;SDS011;5969;50.780;7.726;2023-01-10T18:42:02;11.80;;;3.33;;
11823;SDS011;5969;50.780;7.726;2023-01-10T18:44:29;8.52;;;3.20;;
11823;SDS011;5969;50.780;7.726;2023-01-10T18:46:56;9.55;;;3.05;;
11823;SDS011;5969;50.780;7.726;2023-01-10T18:52:22;4.38;;;2.42;;
11823;SDS011;5969;50.780;7.726;2023-01-10T18:54:49;12.45;;;3.03;;
11823;SDS011;5969;50.780;7.726;2023-01-10T18:57:22;9.45;;;3.45;;
11823;SDS011;5969;50.780;7.726;2023-01-10T18:59:50;7.18;;;2.78;;
11823;SDS011;5969;50.780;7.726;2023-01-10T19:02:17;8.70;;;3.60;;
11823;SDS011;5969;50.780;7.726;2023-01-10T19:04:44;9.75;;;4.35;;
11823;SDS011;5969;50.780;7.726;2023-01-10T19:07:11;11.13;;;3.70;;
11823;SDS011;5969;50.780;7.726;2023-01-10T19:09:39;11.93;;;3.95;;
11823;SDS011;5969;50.780;7.726;2023-01-10T19:12:06;8.50;;;2.97;;
11823;SDS011;5969;50.780;7.726;2023-01-10T19:14:33;7.88;;;2.80;;
11823;SDS011;5969;50.780;7.726;2023-01-10T19:17:06;9.32;;;2.95;;
11823;SDS011;5969;50.780;7.726;2023-01-10T19:19:33;7.72;;;2.97;;
11823;SDS011;5969;50.780;7.726;2023-01-10T19:22:00;7.55;;;3.50;;
11823;SDS011;5969;50.780;7.726;2023-01-10T19:24:27;9.27;;;3.05;;
11823;SDS011;5969;50.780;7.726;2023-01-10T19:26:58;9.45;;;3.13;;
11823;SDS011;5969;50.780;7.726;2023-01-10T19:32:12;6.68;;;3.17;;
11823;SDS011;5969;50.780;7.726;2023-01-10T19:34:39;8.02;;;3.08;;
11823;SDS011;5969;50.780;7.726;2023-01-10T19:37:06;8.02;;;2.60;;
11823;SDS011;5969;50.780;7.726;2023-01-10T19:39:38;7.65;;;2.47;;
11823;SDS011;5969;50.780;7.726;2023-01-10T19:42:07;8.23;;;2.90;;
11823;SDS011;5969;50.780;7.726;2023-01-10T19:44:33;8.90;;;2.63;;
11823;SDS011;5969;50.780;7.726;2023-01-10T19:47:00;7.68;;;3.00;;
11823;SDS011;5969;50.780;7.726;2023-01-10T19:49:27;9.60;;;2.58;;
11823;SDS011;5969;50.780;7.726;2023-01-10T19:51:59;8.38;;;2.45;;
11823;SDS011;5969;50.780;7.726;2023-01-10T19:54:27;8.77;;;2.83;;
11823;SDS011;5969;50.780;7.726;2023-01-10T19:56:55;7.90;;;2.35;;
11823;SDS011;5969;50.780;7.726;2023-01-10T19:59:23;10.48;;;3.20;;
11823;SDS011;5969;50.780;7.726;2023-01-10T20:01:56;8.15;;;2.08;;
11823;SDS011;5969;50.780;7.726;2023-01-10T20:04:24;8.40;;;3.70;;
11823;SDS011;5969;50.780;7.726;2023-01-10T20:06:51;10.48;;;2.60;;
11823;SDS011;5969;50.780;7.726;2023-01-10T20:09:18;9.98;;;2.58;;
11823;SDS011;5969;50.780;7.726;2023-01-10T20:11:45;8.70;;;2.83;;
11823;SDS011;5969;50.780;7.726;2023-01-10T20:14:12;8.82;;;2.92;;
11823;SDS011;5969;50.780;7.726;2023-01-10T20:16:43;9.25;;;2.80;;
11823;SDS011;5969;50.780;7.726;2023-01-10T20:21:56;8.05;;;3.28;;
11823;SDS011;5969;50.780;7.726;2023-01-10T20:24:23;9.55;;;3.25;;
11823;SDS011;5969;50.780;7.726;2023-01-10T20:26:53;8.50;;;2.75;;
11823;SDS011;5969;50.780;7.726;2023-01-10T20:29:21;6.68;;;2.63;;
11823;SDS011;5969;50.780;7.726;2023-01-10T20:31:49;6.30;;;2.60;;
11823;SDS011;5969;50.780;7.726;2023-01-10T20:34:19;11.10;;;2.78;;
11823;SDS011;5969;50.780;7.726;2023-01-10T20:36:46;6.93;;;2.42;;
11823;SDS011;5969;50.780;7.726;2023-01-10T20:39:16;6.60;;;2.67;;
11823;SDS011;5969;50.780;7.726;2023-01-10T20:41:43;7.93;;;2.55;;
11823;SDS011;5969;50.780;7.726;2023-01-10T20:44:12;4.72;;;2.30;;
11823;SDS011;5969;50.780;7.726;2023-01-10T20:46:39;7.90;;;2.47;;
11823;SDS011;5969;50.780;7.726;2023-01-10T20:49:07;9.88;;;2.60;;
11823;SDS011;5969;50.780;7.726;2023-01-10T20:51:34;6.72;;;1.92;;
11823;SDS011;5969;50.780;7.726;2023-01-10T20:54:03;5.97;;;2.13;;
11823;SDS011;5969;50.780;7.726;2023-01-10T20:56:32;6.50;;;2.10;;
11823;SDS011;5969;50.780;7.726;2023-01-10T20:58:59;4.53;;;1.70;;
11823;SDS011;5969;50.780;7.726;2023-01-10T21:01:26;6.93;;;2.15;;
11823;SDS011;5969;50.780;7.726;2023-01-10T21:03:54;5.78;;;2.33;;
11823;SDS011;5969;50.780;7.726;2023-01-10T21:06:23;6.60;;;2.42;;
11823;SDS011;5969;50.780;7.726;2023-01-10T21:08:50;6.35;;;2.22;;
11823;SDS011;5969;50.780;7.726;2023-01-10T21:11:18;6.22;;;2.10;;
11823;SDS011;5969;50.780;7.726;2023-01-10T21:13:45;5.78;;;2.13;;
11823;SDS011;5969;50.780;7.726;2023-01-10T21:16:13;3.53;;;1.77;;
11823;SDS011;5969;50.780;7.726;2023-01-10T21:18:43;6.22;;;2.40;;
11823;SDS011;5969;50.780;7.726;2023-01-10T21:21:11;2.67;;;1.65;;
11823;SDS011;5969;50.780;7.726;2023-01-10T21:23:40;4.03;;;1.70;;
11823;SDS011;5969;50.780;7.726;2023-01-10T21:26:08;2.22;;;1.48;;
11823;SDS011;5969;50.780;7.726;2023-01-10T21:28:37;5.43;;;1.65;;
11823;SDS011;5969;50.780;7.726;2023-01-10T21:31:06;4.15;;;1.42;;
11823;SDS011;5969;50.780;7.726;2023-01-10T21:33:33;3.83;;;1.70;;
11823;SDS011;5969;50.780;7.726;2023-01-10T21:36:02;5.18;;;1.90;;
11823;SDS011;5969;50.780;7.726;2023-01-10T21:38:30;3.03;;;1.40;;
11823;SDS011;5969;50.780;7.726;2023-01-10T21:41:04;2.95;;;1.48;;
11823;SDS011;5969;50.780;7.726;2023-01-10T21:43:33;4.55;;;1.80;;
11823;SDS011;5969;50.780;7.726;2023-01-10T21:46:00;2.97;;;1.52;;
11823;SDS011;5969;50.780;7.726;2023-01-10T21:48:27;3.45;;;1.30;;
11823;SDS011;5969;50.780;7.726;2023-01-10T21:50:55;3.60;;;1.73;;
11823;SDS011;5969;50.780;7.726;2023-01-10T21:53:22;3.03;;;1.60;;
11823;SDS011;5969;50.780;7.726;2023-01-10T21:55:50;2.58;;;1.15;;
11823;SDS011;5969;50.780;7.726;2023-01-10T21:58:20;1.42;;;1.00;;
11823;SDS011;5969;50.780;7.726;2023-01-10T22:00:47;2.42;;;1.55;;
11823;SDS011;5969;50.780;7.726;2023-01-10T22:03:13;2.83;;;1.48;;
11823;SDS011;5969;50.780;7.726;2023-01-10T22:05:40;3.30;;;1.30;;
11823;SDS011;5969;50.780;7.726;2023-01-10T22:08:07;1.45;;;1.20;;
11823;SDS011;5969;50.780;7.726;2023-01-10T22:10:34;3.45;;;1.05;;
11823;SDS011;5969;50.780;7.726;2023-01-10T22:13:06;3.38;;;1.40;;
11823;SDS011;5969;50.780;7.726;2023-01-10T22:15:34;5.00;;;1.58;;
11823;SDS011;5969;50.780;7.726;2023-01-10T22:18:02;4.05;;;1.30;;
11823;SDS011;5969;50.780;7.726;2023-01-10T22:20:29;1.27;;;1.00;;
11823;SDS011;5969;50.780;7.726;2023-01-10T22:22:56;3.92;;;1.17;;
11823;SDS011;5969;50.780;7.726;2023-01-10T22:25:26;2.38;;;1.10;;
11823;SDS011;5969;50.780;7.726;2023-01-10T22:27:52;2.78;;;1.45;;
11823;SDS011;5969;50.780;7.726;2023-01-10T22:30:19;2.25;;;1.20;;
11823;SDS011;5969;50.780;7.726;2023-01-10T22:32:48;1.95;;;1.00;;
11823;SDS011;5969;50.780;7.726;2023-01-10T22:35:15;1.98;;;1.20;;
11823;SDS011;5969;50.780;7.726;2023-01-10T22:37:41;2.05;;;1.00;;
11823;SDS011;5969;50.780;7.726;2023-01-10T22:40:09;3.38;;;1.00;;
11823;SDS011;5969;50.780;7.726;2023-01-10T22:42:36;1.23;;;0.90;;
11823;SDS011;5969;50.780;7.726;2023-01-10T22:45:04;3.22;;;1.13;;
11823;SDS011;5969;50.780;7.726;2023-01-10T22:47:31;1.95;;;1.00;;
11823;SDS011;5969;50.780;7.726;2023-01-10T22:49:59;2.08;;;1.02;;
11823;SDS011;5969;50.780;7.726;2023-01-10T22:52:26;1.35;;;1.08;;
11823;SDS011;5969;50.780;7.726;2023-01-10T22:54:53;1.35;;;0.82;;
11823;SDS011;5969;50.780;7.726;2023-01-10T22:57:20;2.92;;;0.80;;
11823;SDS011;5969;50.780;7.726;2023-01-10T22:59:47;2.78;;;1.00;;
11823;SDS011;5969;50.780;7.726;2023-01-10T23:02:13;2.83;;;1.23;;
11823;SDS011;5969;50.780;7.726;2023-01-10T23:04:40;3.42;;;1.20;;
11823;SDS011;5969;50.780;7.726;2023-01-10T23:07:08;1.98;;;0.90;;
11823;SDS011;5969;50.780;7.726;2023-01-10T23:09:36;1.75;;;1.00;;
11823;SDS011;5969;50.780;7.726;2023-01-10T23:12:03;2.47;;;1.17;;
11823;SDS011;5969;50.780;7.726;2023-01-10T23:14:32;0.80;;;0.80;;
11823;SDS011;5969;50.780;7.726;2023-01-10T23:17:00;1.05;;;0.82;;
11823;SDS011;5969;50.780;7.726;2023-01-10T23:19:27;1.73;;;0.90;;
11823;SDS011;5969;50.780;7.726;2023-01-10T23:21:54;1.30;;;0.90;;
11823;SDS011;5969;50.780;7.726;2023-01-10T23:24:22;1.73;;;0.93;;
11823;SDS011;5969;50.780;7.726;2023-01-10T23:29:40;2.28;;;0.80;;
11823;SDS011;5969;50.780;7.726;2023-01-10T23:32:07;1.15;;;0.95;;
11823;SDS011;5969;50.780;7.726;2023-01-10T23:34:34;2.40;;;1.00;;
11823;SDS011;5969;50.780;7.726;2023-01-10T23:37:02;0.95;;;0.82;;
11823;SDS011;5969;50.780;7.726;2023-01-10T23:39:30;1.08;;;0.80;;
11823;SDS011;5969;50.780;7.726;2023-01-10T23:41:57;1.77;;;0.70;;
11823;SDS011;5969;50.780;7.726;2023-01-10T23:44:24;2.45;;;0.95;;
11823;SDS011;5969;50.780;7.726;2023-01-10T23:46:52;1.00;;;0.90;;
11823;SDS011;5969;50.780;7.726;2023-01-10T23:49:19;1.20;;;0.90;;
11823;SDS011;5969;50.780;7.726;2023-01-10T23:51:46;0.80;;;0.80;;
11823;SDS011;5969;50.780;7.726;2023-01-10T23:54:13;2.60;;;1.05;;
11823;SDS011;5969;50.780;7.726;2023-01-10T23:56:43;1.08;;;0.80;;
11823;SDS011;5969;50.780;7.726;2023-01-10T23:59:10;4.13;;;0.80;;
